createdAt,value
2022-12-12T00:00:14.049Z,991.99
2022-12-12T00:01:14.040Z,992.01
2022-12-12T00:02:14.108Z,991.96
2022-12-12T00:03:14.135Z,991.95
2022-12-12T00:04:14.059Z,991.97
2022-12-12T00:05:14.282Z,991.99
2022-12-12T00:06:13.991Z,991.98
2022-12-12T00:07:13.975Z,991.99
2022-12-12T00:08:14.057Z,991.94
2022-12-12T00:09:13.979Z,991.96
2022-12-12T00:10:13.943Z,991.98
2022-12-12T00:11:13.911Z,992.00
2022-12-12T00:12:13.910Z,991.94
2022-12-12T00:13:13.908Z,991.99
2022-12-12T00:14:13.879Z,992.00
2022-12-12T00:15:14.173Z,991.96
2022-12-12T00:16:13.900Z,991.98
2022-12-12T00:17:13.853Z,991.99
2022-12-12T00:18:13.848Z,992.03
2022-12-12T00:19:13.830Z,991.95
2022-12-12T00:20:13.865Z,991.97
2022-12-12T00:21:13.863Z,991.96
2022-12-12T00:22:13.826Z,991.97
2022-12-12T00:23:13.949Z,991.86
2022-12-12T00:24:13.787Z,991.95
2022-12-12T00:25:14.118Z,992.01
2022-12-12T00:26:13.762Z,991.98
2022-12-12T00:27:13.784Z,991.97
2022-12-12T00:28:13.751Z,992.04
2022-12-12T00:29:13.783Z,992.04
2022-12-12T00:30:13.730Z,992.00
2022-12-12T00:31:13.744Z,991.94
2022-12-12T00:32:13.723Z,992.01
2022-12-12T00:33:13.703Z,991.95
2022-12-12T00:34:13.692Z,991.98
2022-12-12T00:35:13.856Z,992.06
2022-12-12T00:36:13.643Z,992.02
2022-12-12T00:37:13.629Z,991.95
2022-12-12T00:38:13.665Z,991.91
2022-12-12T00:39:18.170Z,991.92
2022-12-12T00:40:13.608Z,991.91
2022-12-12T00:41:13.583Z,991.93
2022-12-12T00:42:13.592Z,991.99
2022-12-12T00:43:13.582Z,991.97
2022-12-12T00:44:13.539Z,992.00
2022-12-12T00:45:13.717Z,991.98
2022-12-12T00:46:13.556Z,991.98
2022-12-12T00:47:13.536Z,992.01
2022-12-12T00:48:13.511Z,992.02
2022-12-12T00:49:13.517Z,992.06
2022-12-12T00:50:13.474Z,992.06
2022-12-12T00:51:13.471Z,992.12
2022-12-12T00:52:13.466Z,992.03
2022-12-12T00:53:13.468Z,992.02
2022-12-12T00:54:13.435Z,992.11
2022-12-12T00:55:13.758Z,992.03
2022-12-12T00:56:13.437Z,992.02
2022-12-12T00:57:13.401Z,992.08
2022-12-12T00:58:13.412Z,992.07
2022-12-12T00:59:13.391Z,992.08
2022-12-12T01:00:13.366Z,992.04
2022-12-12T01:01:13.444Z,992.11
2022-12-12T01:02:13.359Z,992.10
2022-12-12T01:03:13.387Z,992.07
2022-12-12T01:04:13.332Z,992.10
2022-12-12T01:05:13.605Z,992.09
2022-12-12T01:06:13.306Z,992.11
2022-12-12T01:07:14.244Z,992.08
2022-12-12T01:08:13.367Z,992.07
2022-12-12T01:09:13.273Z,992.09
2022-12-12T01:10:13.256Z,992.05
2022-12-12T01:11:13.275Z,992.09
2022-12-12T01:12:13.256Z,992.11
2022-12-12T01:13:13.222Z,992.20
2022-12-12T01:14:13.214Z,992.12
2022-12-12T01:15:13.369Z,992.09
2022-12-12T01:16:13.270Z,992.11
2022-12-12T01:17:13.184Z,992.18
2022-12-12T01:18:13.193Z,992.11
2022-12-12T01:19:13.142Z,992.14
2022-12-12T01:20:13.145Z,992.12
2022-12-12T01:21:13.149Z,992.12
2022-12-12T01:22:13.126Z,992.11
2022-12-12T01:23:13.123Z,992.12
2022-12-12T01:24:13.116Z,992.09
2022-12-12T01:25:13.407Z,992.14
2022-12-12T01:26:13.065Z,992.15
2022-12-12T01:27:13.054Z,992.13
2022-12-12T01:28:13.056Z,992.15
2022-12-12T01:29:13.086Z,992.07
2022-12-12T01:30:13.060Z,992.17
2022-12-12T01:31:13.064Z,992.14
2022-12-12T01:32:13.005Z,992.15
2022-12-12T01:33:12.984Z,992.08
2022-12-12T01:34:12.977Z,992.06
2022-12-12T01:35:13.117Z,992.03
2022-12-12T01:36:12.955Z,992.07
2022-12-12T01:37:12.956Z,992.09
2022-12-12T01:38:12.937Z,992.12
2022-12-12T01:39:12.927Z,992.13
2022-12-12T01:40:12.919Z,992.19
2022-12-12T01:41:12.915Z,992.20
2022-12-12T01:42:12.895Z,992.22
2022-12-12T01:43:12.867Z,992.24
2022-12-12T01:44:12.866Z,992.12
2022-12-12T01:45:12.999Z,992.24
2022-12-12T01:46:12.871Z,992.23
2022-12-12T01:47:12.856Z,992.26
2022-12-12T01:48:12.816Z,992.18
2022-12-12T01:49:12.817Z,992.20
2022-12-12T01:50:12.815Z,992.28
2022-12-12T01:51:12.796Z,992.22
2022-12-12T01:52:12.778Z,992.17
2022-12-12T01:53:12.777Z,992.24
2022-12-12T01:54:12.760Z,992.28
2022-12-12T01:55:12.887Z,992.27
2022-12-12T01:56:20.356Z,992.29
2022-12-12T01:57:12.727Z,992.29
2022-12-12T01:58:12.705Z,992.28
2022-12-12T01:59:12.750Z,992.29
2022-12-12T02:00:12.722Z,992.29
2022-12-12T02:01:12.745Z,992.29
2022-12-12T02:02:12.766Z,992.29
2022-12-12T02:03:12.657Z,992.33
2022-12-12T02:04:12.698Z,992.32
2022-12-12T02:05:12.920Z,992.33
2022-12-12T02:06:12.646Z,992.31
2022-12-12T02:07:12.617Z,992.36
2022-12-12T02:08:12.645Z,992.33
2022-12-12T02:09:12.578Z,992.35
2022-12-12T02:10:12.608Z,992.39
2022-12-12T02:11:12.567Z,992.34
2022-12-12T02:12:12.588Z,992.35
2022-12-12T02:13:12.527Z,992.39
2022-12-12T02:14:12.538Z,992.33
2022-12-12T02:15:12.818Z,992.36
2022-12-12T02:16:12.622Z,992.29
2022-12-12T02:17:12.501Z,992.33
2022-12-12T02:18:12.825Z,992.37
2022-12-12T02:19:12.478Z,992.34
2022-12-12T02:20:12.515Z,992.35
2022-12-12T02:21:12.439Z,992.34
2022-12-12T02:22:12.480Z,992.38
2022-12-12T02:23:12.418Z,992.32
2022-12-12T02:24:12.419Z,992.32
2022-12-12T02:25:12.623Z,992.32
2022-12-12T02:26:12.409Z,992.36
2022-12-12T02:27:12.380Z,992.33
2022-12-12T02:28:12.459Z,992.38
2022-12-12T02:29:12.380Z,992.44
2022-12-12T02:30:12.358Z,992.32
2022-12-12T02:31:12.376Z,992.38
2022-12-12T02:32:12.348Z,992.37
2022-12-12T02:33:12.349Z,992.35
2022-12-12T02:34:12.315Z,992.34
2022-12-12T02:35:12.676Z,992.36
2022-12-12T02:36:12.339Z,992.38
2022-12-12T02:37:12.333Z,992.36
2022-12-12T02:38:12.262Z,992.39
2022-12-12T02:39:12.314Z,992.42
2022-12-12T02:40:12.238Z,992.33
2022-12-12T02:41:12.281Z,992.34
2022-12-12T02:42:12.225Z,992.35
2022-12-12T02:43:12.206Z,992.36
2022-12-12T02:44:12.249Z,992.40
2022-12-12T02:45:12.410Z,992.38
2022-12-12T02:46:12.215Z,992.34
2022-12-12T02:47:12.150Z,992.34
2022-12-12T02:48:12.163Z,992.38
2022-12-12T02:49:12.148Z,992.38
2022-12-12T02:50:12.169Z,992.41
2022-12-12T02:51:12.095Z,992.40
2022-12-12T02:52:12.109Z,992.46
2022-12-12T02:53:12.182Z,992.36
2022-12-12T02:54:12.093Z,992.43
2022-12-12T02:55:12.225Z,992.41
2022-12-12T02:56:12.095Z,992.41
2022-12-12T02:57:12.044Z,992.38
2022-12-12T02:58:12.029Z,992.43
2022-12-12T02:59:12.021Z,992.46
2022-12-12T03:00:12.002Z,992.45
2022-12-12T03:01:12.131Z,992.40
2022-12-12T03:02:12.042Z,992.43
2022-12-12T03:03:11.987Z,992.47
2022-12-12T03:04:11.959Z,992.42
2022-12-12T03:05:12.193Z,992.39
2022-12-12T03:06:11.952Z,992.40
2022-12-12T03:07:12.007Z,992.42
2022-12-12T03:08:11.965Z,992.42
2022-12-12T03:09:11.909Z,992.42
2022-12-12T03:10:11.902Z,992.37
2022-12-12T03:11:11.880Z,992.39
2022-12-12T03:12:11.871Z,992.39
2022-12-12T03:13:11.898Z,992.41
2022-12-12T03:14:11.856Z,992.41
2022-12-12T03:15:12.171Z,992.47
2022-12-12T03:16:11.895Z,992.43
2022-12-12T03:17:11.832Z,992.46
2022-12-12T03:18:11.795Z,992.45
2022-12-12T03:19:11.821Z,992.49
2022-12-12T03:20:11.780Z,992.46
2022-12-12T03:21:11.816Z,992.46
2022-12-12T03:22:11.802Z,992.46
2022-12-12T03:23:11.782Z,992.49
2022-12-12T03:24:11.751Z,992.45
2022-12-12T03:25:12.197Z,992.43
2022-12-12T03:26:11.728Z,992.44
2022-12-12T03:27:11.710Z,992.46
2022-12-12T03:28:11.686Z,992.43
2022-12-12T03:29:11.684Z,992.46
2022-12-12T03:30:11.717Z,992.41
2022-12-12T03:31:11.676Z,992.39
2022-12-12T03:32:11.645Z,992.43
2022-12-12T03:33:11.653Z,992.42
2022-12-12T03:34:11.623Z,992.41
2022-12-12T03:35:11.828Z,992.41
2022-12-12T03:36:11.606Z,992.47
2022-12-12T03:37:11.574Z,992.38
2022-12-12T03:38:11.563Z,992.39
2022-12-12T03:39:11.600Z,992.37
2022-12-12T03:40:11.533Z,992.47
2022-12-12T03:41:11.584Z,992.41
2022-12-12T03:42:11.530Z,992.38
2022-12-12T03:43:11.504Z,992.50
2022-12-12T03:44:11.508Z,992.53
2022-12-12T03:45:11.751Z,992.47
2022-12-12T03:46:11.499Z,992.46
2022-12-12T03:47:11.484Z,992.48
2022-12-12T03:48:19.029Z,992.55
2022-12-12T03:49:11.475Z,992.46
2022-12-12T03:50:11.426Z,992.48
2022-12-12T03:51:11.422Z,992.43
2022-12-12T03:52:11.401Z,992.42
2022-12-12T03:53:11.446Z,992.41
2022-12-12T03:54:11.383Z,992.54
2022-12-12T03:55:11.506Z,992.46
2022-12-12T03:56:11.373Z,992.45
2022-12-12T03:57:11.350Z,992.40
2022-12-12T03:58:11.332Z,992.43
2022-12-12T03:59:11.360Z,992.43
2022-12-12T04:00:11.314Z,992.44
2022-12-12T04:01:11.320Z,992.45
2022-12-12T04:02:11.326Z,992.41
2022-12-12T04:03:11.287Z,992.43
2022-12-12T04:04:11.288Z,992.43
2022-12-12T04:05:11.560Z,992.42
2022-12-12T04:06:11.252Z,992.47
2022-12-12T04:07:11.231Z,992.43
2022-12-12T04:08:11.320Z,992.46
2022-12-12T04:09:11.224Z,992.41
2022-12-12T04:10:11.224Z,992.46
2022-12-12T04:11:11.202Z,992.42
2022-12-12T04:12:11.217Z,992.42
2022-12-12T04:13:11.174Z,992.48
2022-12-12T04:14:11.154Z,992.46
2022-12-12T04:15:11.637Z,992.45
2022-12-12T04:16:11.245Z,992.51
2022-12-12T04:17:11.135Z,992.57
2022-12-12T04:18:11.103Z,992.57
2022-12-12T04:19:11.132Z,992.62
2022-12-12T04:20:11.186Z,992.58
2022-12-12T04:21:11.104Z,992.58
2022-12-12T04:22:15.286Z,992.59
2022-12-12T04:23:12.083Z,992.56
2022-12-12T04:24:11.046Z,992.55
2022-12-12T04:25:11.525Z,992.60
2022-12-12T04:26:11.044Z,992.55
2022-12-12T04:27:11.024Z,992.61
2022-12-12T04:28:11.014Z,992.64
2022-12-12T04:29:10.984Z,992.60
2022-12-12T04:30:10.977Z,992.63
2022-12-12T04:31:10.975Z,992.58
2022-12-12T04:32:10.996Z,992.64
2022-12-12T04:33:11.017Z,992.61
2022-12-12T04:34:10.934Z,992.66
2022-12-12T04:35:11.157Z,992.66
2022-12-12T04:36:10.911Z,992.67
2022-12-12T04:37:10.908Z,992.62
2022-12-12T04:38:10.907Z,992.72
2022-12-12T04:39:10.964Z,992.73
2022-12-12T04:40:10.884Z,992.70
2022-12-12T04:41:10.854Z,992.69
2022-12-12T04:42:10.887Z,992.69
2022-12-12T04:43:10.824Z,992.65
2022-12-12T04:44:10.812Z,992.71
2022-12-12T04:45:10.919Z,992.71
2022-12-12T04:46:10.874Z,992.75
2022-12-12T04:47:10.786Z,992.71
2022-12-12T04:48:10.773Z,992.72
2022-12-12T04:49:10.767Z,992.76
2022-12-12T04:50:10.776Z,992.74
2022-12-12T04:51:10.747Z,992.76
2022-12-12T04:52:10.788Z,992.78
2022-12-12T04:53:14.896Z,992.74
2022-12-12T04:54:11.718Z,992.72
2022-12-12T04:55:11.033Z,992.81
2022-12-12T04:56:10.715Z,992.82
2022-12-12T04:57:10.679Z,992.79
2022-12-12T04:58:10.692Z,992.78
2022-12-12T04:59:10.657Z,992.82
2022-12-12T05:00:10.640Z,992.77
2022-12-12T05:01:10.741Z,992.76
2022-12-12T05:02:10.684Z,992.84
2022-12-12T05:03:10.608Z,992.85
2022-12-12T05:04:10.612Z,992.82
2022-12-12T05:05:10.912Z,992.82
2022-12-12T05:06:10.564Z,992.81
2022-12-12T05:07:10.609Z,992.75
2022-12-12T05:08:10.576Z,992.79
2022-12-12T05:09:10.562Z,992.81
2022-12-12T05:10:10.538Z,992.87
2022-12-12T05:11:10.516Z,992.85
2022-12-12T05:12:10.505Z,992.81
2022-12-12T05:13:10.542Z,992.76
2022-12-12T05:14:10.480Z,992.81
2022-12-12T05:15:10.597Z,992.84
2022-12-12T05:16:10.451Z,992.80
2022-12-12T05:17:10.446Z,992.79
2022-12-12T05:18:10.451Z,992.75
2022-12-12T05:19:10.468Z,992.78
2022-12-12T05:20:10.419Z,992.76
2022-12-12T05:21:10.388Z,992.76
2022-12-12T05:22:10.381Z,992.84
2022-12-12T05:23:10.387Z,992.77
2022-12-12T05:24:10.361Z,992.77
2022-12-12T05:25:10.678Z,992.80
2022-12-12T05:26:10.362Z,992.79
2022-12-12T05:27:10.351Z,992.75
2022-12-12T05:28:10.316Z,992.77
2022-12-12T05:29:10.368Z,992.78
2022-12-12T05:30:10.300Z,992.79
2022-12-12T05:31:10.376Z,992.80
2022-12-12T05:32:10.268Z,992.81
2022-12-12T05:33:10.285Z,992.81
2022-12-12T05:34:10.262Z,992.83
2022-12-12T05:35:10.457Z,992.80
2022-12-12T05:36:10.228Z,992.77
2022-12-12T05:37:10.270Z,992.88
2022-12-12T05:38:10.356Z,992.79
2022-12-12T05:39:10.201Z,992.82
2022-12-12T05:40:10.225Z,992.84
2022-12-12T05:41:10.194Z,992.88
2022-12-12T05:42:10.185Z,992.82
2022-12-12T05:43:10.197Z,992.84
2022-12-12T05:44:10.193Z,992.84
2022-12-12T05:45:10.388Z,992.84
2022-12-12T05:46:10.181Z,992.87
2022-12-12T05:47:10.128Z,992.83
2022-12-12T05:48:10.109Z,992.86
2022-12-12T05:49:10.098Z,992.85
2022-12-12T05:50:10.062Z,992.87
2022-12-12T05:51:10.147Z,992.82
2022-12-12T05:52:10.050Z,992.88
2022-12-12T05:53:10.028Z,992.85
2022-12-12T05:54:10.040Z,992.88
2022-12-12T05:55:10.232Z,992.85
2022-12-12T05:56:10.678Z,992.89
2022-12-12T05:57:09.988Z,992.87
2022-12-12T05:58:09.969Z,992.93
2022-12-12T05:59:10.040Z,992.90
2022-12-12T06:00:09.984Z,992.93
2022-12-12T06:01:10.085Z,992.96
2022-12-12T06:02:09.941Z,992.93
2022-12-12T06:03:09.951Z,992.92
2022-12-12T06:04:09.973Z,992.97
2022-12-12T06:05:09.979Z,992.98
2022-12-12T06:06:10.011Z,992.99
2022-12-12T06:07:09.935Z,993.00
2022-12-12T06:08:10.005Z,993.01
2022-12-12T06:09:09.858Z,993.02
2022-12-12T06:10:09.874Z,993.04
2022-12-12T06:11:09.848Z,993.00
2022-12-12T06:12:09.853Z,993.05
2022-12-12T06:13:09.838Z,993.01
2022-12-12T06:14:09.799Z,993.01
2022-12-12T06:15:09.813Z,993.09
2022-12-12T06:16:09.906Z,992.99
2022-12-12T06:17:09.821Z,993.07
2022-12-12T06:18:09.813Z,993.07
2022-12-12T06:19:09.804Z,993.07
2022-12-12T06:20:09.752Z,993.09
2022-12-12T06:21:09.760Z,993.13
2022-12-12T06:22:09.702Z,993.11
2022-12-12T06:23:09.701Z,993.13
2022-12-12T06:24:09.700Z,993.11
2022-12-12T06:25:09.661Z,993.14
2022-12-12T06:26:09.757Z,993.12
2022-12-12T06:27:09.769Z,993.11
2022-12-12T06:28:09.674Z,993.14
2022-12-12T06:29:09.623Z,993.18
2022-12-12T06:30:09.609Z,993.14
2022-12-12T06:31:11.904Z,993.17
2022-12-12T06:32:09.643Z,993.18
2022-12-12T06:33:09.630Z,993.20
2022-12-12T06:34:09.565Z,993.16
2022-12-12T06:35:09.562Z,993.18
2022-12-12T06:36:09.573Z,993.23
2022-12-12T06:37:15.608Z,993.20
2022-12-12T06:38:10.635Z,993.17
2022-12-12T06:39:10.409Z,993.14
2022-12-12T06:40:09.549Z,993.21
2022-12-12T06:41:09.543Z,993.19
2022-12-12T06:42:09.471Z,993.20
2022-12-12T06:43:09.484Z,993.22
2022-12-12T06:44:09.491Z,993.27
2022-12-12T06:45:09.442Z,993.26
2022-12-12T06:46:09.537Z,993.26
2022-12-12T06:47:10.771Z,993.30
2022-12-12T06:48:09.511Z,993.26
2022-12-12T06:49:09.779Z,993.24
2022-12-12T06:50:09.444Z,993.28
2022-12-12T06:51:09.529Z,993.23
2022-12-12T06:52:09.463Z,993.27
2022-12-12T06:53:09.548Z,993.28
2022-12-12T06:54:09.379Z,993.29
2022-12-12T06:55:09.473Z,993.28
2022-12-12T06:56:09.336Z,993.31
2022-12-12T06:57:09.587Z,993.30
2022-12-12T06:58:09.363Z,993.37
2022-12-12T06:59:09.484Z,993.34
2022-12-12T07:00:09.424Z,993.33
2022-12-12T07:01:09.389Z,993.35
2022-12-12T07:02:09.341Z,993.39
2022-12-12T07:03:09.278Z,993.39
2022-12-12T07:04:09.235Z,993.43
2022-12-12T07:05:09.213Z,993.44
2022-12-12T07:06:09.261Z,993.43
2022-12-12T07:07:09.194Z,993.47
2022-12-12T07:08:09.376Z,993.46
2022-12-12T07:09:09.172Z,993.43
2022-12-12T07:10:09.166Z,993.44
2022-12-12T07:11:09.177Z,993.42
2022-12-12T07:12:09.278Z,993.48
2022-12-12T07:13:09.207Z,993.48
2022-12-12T07:14:09.103Z,993.47
2022-12-12T07:15:09.094Z,993.49
2022-12-12T07:16:09.188Z,993.45
2022-12-12T07:17:09.131Z,993.45
2022-12-12T07:18:09.103Z,993.51
2022-12-12T07:19:09.067Z,993.49
2022-12-12T07:20:09.065Z,993.52
2022-12-12T07:21:09.044Z,993.47
2022-12-12T07:22:10.548Z,993.55
2022-12-12T07:23:09.135Z,993.50
2022-12-12T07:24:09.077Z,993.57
2022-12-12T07:25:08.996Z,993.57
2022-12-12T07:26:08.990Z,993.65
2022-12-12T07:27:08.983Z,993.65
2022-12-12T07:28:09.013Z,993.63
2022-12-12T07:29:09.026Z,993.64
2022-12-12T07:30:08.964Z,993.65
2022-12-12T07:31:08.957Z,993.64
2022-12-12T07:32:08.970Z,993.64
2022-12-12T07:33:16.515Z,993.67
2022-12-12T07:34:08.927Z,993.68
2022-12-12T07:35:09.053Z,993.64
2022-12-12T07:36:08.891Z,993.66
2022-12-12T07:37:08.856Z,993.71
2022-12-12T07:38:08.923Z,993.71
2022-12-12T07:39:08.834Z,993.69
2022-12-12T07:40:08.855Z,993.72
2022-12-12T07:41:08.809Z,993.71
2022-12-12T07:42:08.861Z,993.71
2022-12-12T07:44:36.158Z,993.76
2022-12-12T07:45:36.258Z,993.79
2022-12-12T07:46:36.214Z,993.75
2022-12-12T07:47:36.172Z,993.76
2022-12-12T07:48:36.099Z,993.83
2022-12-12T07:49:36.136Z,993.75
2022-12-12T07:50:36.086Z,993.76
2022-12-12T07:51:36.253Z,993.73
2022-12-12T07:52:36.125Z,993.78
2022-12-12T07:53:36.050Z,993.81
2022-12-12T07:54:36.182Z,993.82
2022-12-12T07:55:36.078Z,993.82
2022-12-12T07:56:36.030Z,993.84
2022-12-12T07:57:36.008Z,993.86
2022-12-12T07:58:36.029Z,993.85
2022-12-12T07:59:36.010Z,993.84
2022-12-12T08:00:36.038Z,993.82
2022-12-12T08:01:36.076Z,993.77
2022-12-12T08:02:35.978Z,993.85
2022-12-12T08:03:35.949Z,993.75
2022-12-12T08:04:36.075Z,993.85
2022-12-12T08:05:35.990Z,993.77
2022-12-12T08:06:35.976Z,993.79
2022-12-12T08:07:35.968Z,993.78
2022-12-12T08:08:35.897Z,993.76
2022-12-12T08:09:36.012Z,993.77
2022-12-12T08:10:35.879Z,993.83
2022-12-12T08:11:35.930Z,993.84
2022-12-12T08:12:36.852Z,993.77
2022-12-12T08:13:36.802Z,993.77
2022-12-12T08:14:37.074Z,993.81
2022-12-12T08:15:36.735Z,993.78
2022-12-12T08:16:35.983Z,993.85
2022-12-12T08:17:35.917Z,993.85
2022-12-12T08:18:35.856Z,993.89
2022-12-12T08:19:35.770Z,993.87
2022-12-12T08:20:35.740Z,993.89
2022-12-12T08:21:35.796Z,993.93
2022-12-12T08:22:35.811Z,993.94
2022-12-12T08:23:35.820Z,993.92
2022-12-12T08:24:35.845Z,993.93
2022-12-12T08:25:36.358Z,993.98
2022-12-12T08:26:38.373Z,993.94
2022-12-12T08:27:35.810Z,993.95
2022-12-12T08:28:35.805Z,993.97
2022-12-12T08:29:36.561Z,994.00
2022-12-12T08:30:35.701Z,994.03
2022-12-12T08:31:35.836Z,993.98
2022-12-12T08:32:35.782Z,993.96
2022-12-12T08:33:35.877Z,993.99
2022-12-12T08:34:36.086Z,994.00
2022-12-12T08:35:35.881Z,994.04
2022-12-12T08:36:35.711Z,994.00
2022-12-12T08:37:35.701Z,994.01
2022-12-12T08:38:35.684Z,994.03
2022-12-12T08:39:35.559Z,994.12
2022-12-12T08:40:35.663Z,994.11
2022-12-12T08:41:35.573Z,994.06
2022-12-12T08:42:35.591Z,994.15
2022-12-12T08:43:35.869Z,994.18
2022-12-12T08:44:35.625Z,994.20
2022-12-12T08:45:35.621Z,994.21
2022-12-12T08:46:35.621Z,994.19
2022-12-12T08:47:35.667Z,994.18
2022-12-12T08:48:35.553Z,994.17
2022-12-12T08:49:35.448Z,994.20
2022-12-12T08:50:35.525Z,994.17
2022-12-12T08:51:35.529Z,994.14
2022-12-12T08:52:35.397Z,994.17
2022-12-12T08:53:35.398Z,994.17
2022-12-12T08:54:35.414Z,994.19
2022-12-12T08:55:35.392Z,994.24
2022-12-12T08:56:35.528Z,994.21
2022-12-12T08:57:35.384Z,994.23
2022-12-12T08:58:35.337Z,994.21
2022-12-12T08:59:35.325Z,994.17
2022-12-12T09:00:35.307Z,994.19
2022-12-12T09:01:35.379Z,994.25
2022-12-12T09:02:35.475Z,994.24
2022-12-12T09:03:35.310Z,994.16
2022-12-12T09:04:35.280Z,994.19
2022-12-12T09:05:35.285Z,994.19
2022-12-12T09:06:35.454Z,994.24
2022-12-12T09:07:35.256Z,994.20
2022-12-12T09:08:35.229Z,994.19
2022-12-12T09:09:35.220Z,994.24
2022-12-12T09:10:35.323Z,994.23
2022-12-12T09:11:35.228Z,994.22
2022-12-12T09:12:41.283Z,994.30
2022-12-12T09:13:36.305Z,994.30
2022-12-12T09:14:35.164Z,994.28
2022-12-12T09:15:35.139Z,994.30
2022-12-12T09:16:35.170Z,994.28
2022-12-12T09:17:35.107Z,994.35
2022-12-12T09:18:35.102Z,994.33
2022-12-12T09:19:35.094Z,994.34
2022-12-12T09:20:35.058Z,994.32
2022-12-12T09:21:35.045Z,994.30
2022-12-12T09:22:35.033Z,994.28
2022-12-12T09:23:35.025Z,994.33
2022-12-12T09:24:35.052Z,994.33
2022-12-12T09:25:38.796Z,994.35
2022-12-12T09:26:36.015Z,994.34
2022-12-12T09:27:34.983Z,994.32
2022-12-12T09:28:35.107Z,994.35
2022-12-12T09:29:34.972Z,994.36
2022-12-12T09:30:34.998Z,994.33
2022-12-12T09:31:35.027Z,994.34
2022-12-12T09:32:34.925Z,994.41
2022-12-12T09:33:34.945Z,994.36
2022-12-12T09:34:34.912Z,994.42
2022-12-12T09:35:34.929Z,994.45
2022-12-12T09:36:34.925Z,994.40
2022-12-12T09:37:34.920Z,994.42
2022-12-12T09:38:34.919Z,994.43
2022-12-12T09:39:34.849Z,994.41
2022-12-12T09:40:34.854Z,994.41
2022-12-12T09:41:34.827Z,994.39
2022-12-12T09:42:34.860Z,994.44
2022-12-12T09:43:34.819Z,994.44
2022-12-12T09:44:34.795Z,994.45
2022-12-12T09:45:34.800Z,994.48
2022-12-12T09:46:34.787Z,994.44
2022-12-12T09:47:34.775Z,994.41
2022-12-12T09:48:34.906Z,994.45
2022-12-12T09:49:39.911Z,994.39
2022-12-12T09:50:35.721Z,994.39
2022-12-12T09:51:34.731Z,994.38
2022-12-12T09:52:34.709Z,994.40
2022-12-12T09:53:34.738Z,994.45
2022-12-12T09:54:34.707Z,994.45
2022-12-12T09:55:34.666Z,994.47
2022-12-12T09:56:34.678Z,994.50
2022-12-12T09:57:34.699Z,994.49
2022-12-12T09:58:34.709Z,994.47
2022-12-12T09:59:34.624Z,994.46
2022-12-12T10:00:34.710Z,994.43
2022-12-12T10:01:34.601Z,994.43
2022-12-12T10:02:34.704Z,994.42
2022-12-12T10:03:34.576Z,994.39
2022-12-12T10:04:34.573Z,994.43
2022-12-12T10:05:35.369Z,994.47
2022-12-12T10:06:37.434Z,994.44
2022-12-12T10:07:34.529Z,994.47
2022-12-12T10:08:34.591Z,994.52
2022-12-12T10:09:34.559Z,994.44
2022-12-12T10:10:34.557Z,994.47
2022-12-12T10:11:34.487Z,994.47
2022-12-12T10:12:34.519Z,994.46
2022-12-12T10:13:34.482Z,994.41
2022-12-12T10:14:34.492Z,994.46
2022-12-12T10:15:34.484Z,994.38
2022-12-12T10:16:34.481Z,994.43
2022-12-12T10:17:34.479Z,994.41
2022-12-12T10:18:34.433Z,994.43
2022-12-12T10:19:34.408Z,994.43
2022-12-12T10:20:34.409Z,994.50
2022-12-12T10:21:34.391Z,994.45
2022-12-12T10:22:34.370Z,994.42
2022-12-12T10:23:34.380Z,994.44
2022-12-12T10:24:34.348Z,994.43
2022-12-12T10:25:34.327Z,994.43
2022-12-12T10:26:34.329Z,994.45
2022-12-12T10:27:34.309Z,994.46
2022-12-12T10:28:34.349Z,994.37
2022-12-12T10:29:39.647Z,994.40
2022-12-12T10:30:35.290Z,994.41
2022-12-12T10:31:34.340Z,994.42
2022-12-12T10:32:34.260Z,994.44
2022-12-12T10:33:34.259Z,994.43
2022-12-12T10:34:34.290Z,994.47
2022-12-12T10:35:34.232Z,994.46
2022-12-12T10:36:34.211Z,994.44
2022-12-12T10:37:34.228Z,994.42
2022-12-12T10:38:34.190Z,994.43
2022-12-12T10:39:34.175Z,994.40
2022-12-12T10:40:34.215Z,994.38
2022-12-12T10:41:34.154Z,994.33
2022-12-12T10:42:34.171Z,994.38
2022-12-12T10:43:34.148Z,994.36
2022-12-12T10:44:34.124Z,994.38
2022-12-12T10:45:34.152Z,994.37
2022-12-12T10:46:34.326Z,994.45
2022-12-12T10:47:34.091Z,994.40
2022-12-12T10:48:34.080Z,994.45
2022-12-12T10:49:34.061Z,994.47
2022-12-12T10:50:34.067Z,994.43
2022-12-12T10:51:34.049Z,994.46
2022-12-12T10:52:34.050Z,994.45
2022-12-12T10:53:34.030Z,994.49
2022-12-12T10:54:34.029Z,994.47
2022-12-12T10:55:34.008Z,994.41
2022-12-12T10:56:33.989Z,994.38
2022-12-12T10:57:34.023Z,994.37
2022-12-12T10:58:33.967Z,994.41
2022-12-12T10:59:33.962Z,994.39
2022-12-12T11:00:33.953Z,994.40
2022-12-12T11:02:07.648Z,994.40
2022-12-12T11:02:35.130Z,994.43
2022-12-12T11:03:33.945Z,994.39
2022-12-12T11:04:33.902Z,994.43
2022-12-12T11:05:33.913Z,994.38
2022-12-12T11:06:33.874Z,994.42
2022-12-12T11:07:33.863Z,994.33
2022-12-12T11:08:33.948Z,994.41
2022-12-12T11:09:33.844Z,994.33
2022-12-12T11:10:34.572Z,994.34
2022-12-12T11:11:33.849Z,994.32
2022-12-12T11:12:33.878Z,994.38
2022-12-12T11:13:33.848Z,994.40
2022-12-12T11:14:33.823Z,994.37
2022-12-12T11:15:33.782Z,994.35
2022-12-12T11:16:33.843Z,994.36
2022-12-12T11:17:33.794Z,994.33
2022-12-12T11:18:33.777Z,994.26
2022-12-12T11:19:33.794Z,994.29
2022-12-12T11:20:33.712Z,994.28
2022-12-12T11:21:33.714Z,994.28
2022-12-12T11:22:33.712Z,994.29
2022-12-12T11:23:33.709Z,994.31
2022-12-12T11:24:33.682Z,994.29
2022-12-12T11:25:33.746Z,994.25
2022-12-12T11:26:33.653Z,994.32
2022-12-12T11:27:33.672Z,994.29
2022-12-12T11:28:33.689Z,994.28
2022-12-12T11:29:33.690Z,994.33
2022-12-12T11:30:33.624Z,994.29
2022-12-12T11:31:33.698Z,994.24
2022-12-12T11:32:33.613Z,994.31
2022-12-12T11:33:33.645Z,994.24
2022-12-12T11:34:34.096Z,994.21
2022-12-12T11:35:33.585Z,994.16
2022-12-12T11:36:33.617Z,994.16
2022-12-12T11:37:33.552Z,994.20
2022-12-12T11:38:33.514Z,994.17
2022-12-12T11:39:33.543Z,994.23
2022-12-12T11:40:33.501Z,994.18
2022-12-12T11:41:33.510Z,994.26
2022-12-12T11:42:33.604Z,994.23
2022-12-12T11:43:33.485Z,994.21
2022-12-12T11:44:33.488Z,994.20
2022-12-12T11:45:33.518Z,994.26
2022-12-12T11:46:33.504Z,994.24
2022-12-12T11:47:33.485Z,994.28
2022-12-12T11:48:33.447Z,994.22
2022-12-12T11:49:33.434Z,994.23
2022-12-12T11:50:33.495Z,994.16
2022-12-12T11:51:33.398Z,994.14
2022-12-12T11:52:33.479Z,994.19
2022-12-12T11:53:33.405Z,994.17
2022-12-12T11:54:33.354Z,994.13
2022-12-12T11:55:33.346Z,994.16
2022-12-12T11:56:33.336Z,994.12
2022-12-12T11:57:33.337Z,994.18
2022-12-12T11:58:33.315Z,994.12
2022-12-12T11:59:33.354Z,994.13
2022-12-12T12:00:33.308Z,994.11
2022-12-12T12:01:33.256Z,994.09
2022-12-12T12:02:33.259Z,994.07
2022-12-12T12:03:33.289Z,994.03
2022-12-12T12:04:33.279Z,994.04
2022-12-12T12:05:33.306Z,993.99
2022-12-12T12:06:33.236Z,994.01
2022-12-12T12:07:33.205Z,993.95
2022-12-12T12:08:33.276Z,993.98
2022-12-12T12:09:33.195Z,993.95
2022-12-12T12:10:33.166Z,993.90
2022-12-12T12:11:33.258Z,993.91
2022-12-12T12:12:33.144Z,993.97
2022-12-12T12:13:33.137Z,994.00
2022-12-12T12:14:33.146Z,993.99
2022-12-12T12:15:33.159Z,994.00
2022-12-12T12:16:33.139Z,994.04
2022-12-12T12:17:33.125Z,993.99
2022-12-12T12:18:33.092Z,993.92
2022-12-12T12:19:33.089Z,993.97
2022-12-12T12:20:33.084Z,993.93
2022-12-12T12:21:33.068Z,993.93
2022-12-12T12:22:33.079Z,993.93
2022-12-12T12:23:37.655Z,993.92
2022-12-12T12:24:34.044Z,994.05
2022-12-12T12:25:33.188Z,994.07
2022-12-12T12:26:33.020Z,994.02
2022-12-12T12:27:33.038Z,994.03
2022-12-12T12:28:33.079Z,994.01
2022-12-12T12:29:32.996Z,994.04